Aneth, Utah
Current Conditions -  °F | °C
As of 3:55 PM on Wednesday 26 Nov 2014 (Local Time) from KBDG Reporting Station
Clear Clear  
Wind Chill: 53°   Ceiling: Unl
Heat Index: 53°   Visibility: 10mi
Dew Point: 19°   Wind: 5mph
Humidity: 27%   Direction: 210°SSW
Pressure: 30.44"   Gusts: NA
Location:  37.22°N, 109.19°W
Report Text: KBDG 262255Z AUTO 21004KT 10SM CLR 11/M07 A3044 RMK AO1 T01141070
Loading
Personal Weather Stations






























Interactive Weather Map New forecast layout! Learn more

10-Day Weather Forecast

Advertisements
Track Severe Weather on mobile